createdAt,value
2023-04-15T00:01:06.214Z,7.97
2023-04-15T00:03:35.098Z,9.10
2023-04-15T00:06:03.690Z,7.93
2023-04-15T00:08:31.744Z,8.30
2023-04-15T00:11:02.880Z,7.97
2023-04-15T00:13:30.817Z,8.00
2023-04-15T00:15:58.380Z,7.93
2023-04-15T00:18:27.372Z,8.27
2023-04-15T00:20:55.163Z,7.53
2023-04-15T00:23:22.924Z,7.80
2023-04-15T00:25:50.982Z,7.90
2023-04-15T00:28:18.677Z,7.93
2023-04-15T00:30:47.306Z,7.93
2023-04-15T00:33:16.447Z,7.57
2023-04-15T00:35:45.534Z,8.10
2023-04-15T00:38:13.517Z,7.83
2023-04-15T00:40:41.456Z,7.03
2023-04-15T00:43:09.149Z,7.40
2023-04-15T00:45:37.351Z,7.20
2023-04-15T00:48:05.467Z,6.80
2023-04-15T00:50:34.668Z,6.87
2023-04-15T00:53:03.647Z,7.33
2023-04-15T00:55:31.299Z,7.07
2023-04-15T00:57:58.989Z,7.40
2023-04-15T01:00:26.824Z,7.43
2023-04-15T01:02:54.681Z,7.70
2023-04-15T01:05:22.691Z,8.30
2023-04-15T01:07:50.383Z,7.70
2023-04-15T01:10:19.664Z,7.83
2023-04-15T01:12:47.510Z,7.53
2023-04-15T01:15:16.012Z,8.17
2023-04-15T01:17:43.722Z,7.73
2023-04-15T01:20:12.228Z,8.20
2023-04-15T01:22:40.702Z,8.17
2023-04-15T01:25:13.288Z,8.37
2023-04-15T01:27:43.281Z,7.83
2023-04-15T01:30:12.161Z,7.97
2023-04-15T01:32:39.954Z,8.17
2023-04-15T01:35:08.805Z,7.77
2023-04-15T01:37:36.829Z,7.27
2023-04-15T01:40:04.748Z,7.70
2023-04-15T01:42:32.581Z,7.27
2023-04-15T01:45:01.980Z,6.57
2023-04-15T01:47:29.609Z,7.47
2023-04-15T01:49:57.229Z,7.53
2023-04-15T01:52:25.313Z,7.50
2023-04-15T01:54:52.985Z,7.03
2023-04-15T01:57:20.943Z,7.57
2023-04-15T01:59:48.570Z,7.33
2023-04-15T02:02:17.903Z,6.90
2023-04-15T02:04:45.671Z,7.70
2023-04-15T02:07:13.285Z,6.83
2023-04-15T02:09:40.914Z,7.47
2023-04-15T02:12:08.510Z,6.57
2023-04-15T02:14:36.367Z,6.87
2023-04-15T02:17:07.392Z,6.70
2023-04-15T02:19:36.844Z,7.00
2023-04-15T02:22:04.444Z,7.37
2023-04-15T02:24:32.193Z,6.93
2023-04-15T02:26:59.799Z,7.83
2023-04-15T02:29:27.392Z,7.97
2023-04-15T02:31:55.007Z,7.20
2023-04-15T02:34:22.784Z,7.00
2023-04-15T02:36:55.032Z,7.27
2023-04-15T02:39:22.617Z,7.30
2023-04-15T02:41:56.889Z,7.40
2023-04-15T02:44:24.988Z,7.00
2023-04-15T02:46:54.697Z,6.63
2023-04-15T02:49:23.049Z,7.27
2023-04-15T02:51:51.979Z,7.77
2023-04-15T02:54:20.091Z,7.13
2023-04-15T02:56:47.690Z,7.03
2023-04-15T02:59:15.307Z,6.97
2023-04-15T03:01:43.665Z,6.83
2023-04-15T03:04:11.813Z,6.83
2023-04-15T03:06:39.489Z,7.00
2023-04-15T03:09:08.475Z,7.03
2023-04-15T03:11:40.452Z,7.27
2023-04-15T03:14:08.034Z,6.77
2023-04-15T03:16:35.926Z,7.20
2023-04-15T03:19:03.740Z,7.53
2023-04-15T03:21:31.764Z,7.77
2023-04-15T03:23:59.304Z,7.20
2023-04-15T03:26:29.473Z,7.40
2023-04-15T03:28:57.524Z,7.70
2023-04-15T03:31:25.444Z,7.70
2023-04-15T03:33:53.037Z,7.90
2023-04-15T03:36:20.668Z,7.43
2023-04-15T03:38:49.364Z,8.30
2023-04-15T03:41:17.383Z,7.97
2023-04-15T03:43:50.588Z,7.83
2023-04-15T03:46:18.483Z,7.87
2023-04-15T03:48:46.388Z,8.73
2023-04-15T03:51:14.127Z,8.40
2023-04-15T03:53:41.990Z,8.70
2023-04-15T03:56:09.586Z,9.57
2023-04-15T03:58:37.789Z,8.83
2023-04-15T04:01:07.305Z,9.33
2023-04-15T04:03:34.976Z,9.40
2023-04-15T04:06:02.696Z,8.90
2023-04-15T04:08:30.372Z,9.67
2023-04-15T04:10:58.089Z,9.43
2023-04-15T04:13:25.758Z,8.53
2023-04-15T04:15:53.450Z,8.90
2023-04-15T04:18:22.662Z,9.00
2023-04-15T04:20:50.351Z,9.40
2023-04-15T04:23:17.969Z,9.43
2023-04-15T04:25:45.560Z,9.60
2023-04-15T04:28:13.316Z,8.80
2023-04-15T04:30:41.040Z,8.83
2023-04-15T04:33:08.768Z,8.73
2023-04-15T04:35:37.891Z,8.67
2023-04-15T04:38:05.621Z,9.63
2023-04-15T04:40:33.253Z,10.60
2023-04-15T04:43:01.149Z,11.40
2023-04-15T04:45:28.761Z,9.90
2023-04-15T04:47:56.598Z,9.80
2023-04-15T04:50:24.204Z,8.87
2023-04-15T04:52:53.128Z,8.97
2023-04-15T04:55:21.224Z,9.53
2023-04-15T04:57:48.807Z,9.37
2023-04-15T05:00:16.923Z,10.10
2023-04-15T05:02:44.937Z,9.60
2023-04-15T05:05:13.214Z,10.13
2023-04-15T05:07:40.964Z,9.80
2023-04-15T05:10:11.457Z,9.70
2023-04-15T05:12:39.405Z,10.43
2023-04-15T05:15:08.304Z,11.03
2023-04-15T05:17:36.023Z,9.13
2023-04-15T05:20:04.021Z,9.30
2023-04-15T05:22:31.613Z,9.40
2023-04-15T05:24:59.338Z,9.20
2023-04-15T05:27:28.341Z,9.93
2023-04-15T05:29:56.624Z,9.67
2023-04-15T05:32:24.231Z,10.23
2023-04-15T05:34:52.206Z,10.93
2023-04-15T05:37:20.900Z,9.57
2023-04-15T05:39:48.598Z,9.70
2023-04-15T05:42:16.696Z,9.67
2023-04-15T05:44:45.800Z,9.40
2023-04-15T05:47:13.388Z,8.53
2023-04-15T05:49:40.970Z,9.00
2023-04-15T05:52:08.769Z,8.37
2023-04-15T05:54:36.651Z,8.67
2023-04-15T05:57:04.525Z,8.50
2023-04-15T05:59:32.844Z,7.80
2023-04-15T06:02:01.918Z,7.20
2023-04-15T06:04:29.760Z,7.10
2023-04-15T06:06:58.177Z,7.40
2023-04-15T06:09:25.850Z,7.23
2023-04-15T06:11:53.565Z,7.63
2023-04-15T06:14:21.291Z,7.67
2023-04-15T06:16:49.144Z,7.20
2023-04-15T06:19:18.391Z,7.47
2023-04-15T06:21:48.942Z,7.33
2023-04-15T06:24:16.600Z,6.70
2023-04-15T06:26:44.157Z,7.27
2023-04-15T06:29:11.797Z,7.20
2023-04-15T06:31:39.400Z,6.90
2023-04-15T06:34:11.232Z,6.60
2023-04-15T06:36:40.133Z,6.33
2023-04-15T06:39:07.697Z,6.23
2023-04-15T06:41:35.571Z,6.63
